Time;durP1;ratioP1;P1;durP2;ratioP2;P2;SDS_P1;SDS_P2;PMS_P1;PMS_P2;Temp;Humidity;BMP_temperature;BMP_pressure;BME280_temperature;BME280_humidity;BME280_pressure;Samples;Min_cycle;Max_cycle;Signal;HPM_P1;HPM_P2
2022/07/25 00:02:39;;;;;;;24.65;11.90;;;;;;;;;;10153100;28;20059;-64
2022/07/25 00:07:32;;;;;;;11.38;7.95;;;;;;;;;;10157774;28;20032;-62
2022/07/25 00:12:26;;;;;;;15.43;9.18;;;;;;;;;;10170176;28;20101;-62
2022/07/25 00:17:19;;;;;;;12.65;8.10;;;;;;;;;;10172668;28;20044;-60
2022/07/25 00:22:12;;;;;;;8.85;7.07;;;;;;;;;;10163735;28;20131;-62
2022/07/25 00:27:07;;;;;;;8.93;8.02;;;;;;;;;;10183204;28;20482;-63
2022/07/25 00:32:01;;;;;;;11.25;8.85;;;;;;;;;;10169996;28;20048;-62
2022/07/25 00:36:56;;;;;;;11.05;8.48;;;;;;;;;;10170377;28;20131;-63
2022/07/25 00:41:49;;;;;;;10.77;9.80;;;;;;;;;;10172643;28;20044;-63
2022/07/25 00:46:43;;;;;;;9.55;8.65;;;;;;;;;;10173352;28;20043;-63
2022/07/25 00:51:38;;;;;;;9.48;8.57;;;;;;;;;;10176850;28;20447;-62
2022/07/25 00:56:32;;;;;;;10.32;8.15;;;;;;;;;;10180372;28;20047;-62
2022/07/25 01:01:27;;;;;;;11.88;8.15;;;;;;;;;;10170385;28;20074;-62
2022/07/25 01:06:21;;;;;;;12.60;9.10;;;;;;;;;;10177531;28;20093;-63
2022/07/25 01:11:16;;;;;;;12.70;8.25;;;;;;;;;;10156498;28;20085;-60
2022/07/25 01:16:10;;;;;;;13.57;8.85;;;;;;;;;;10171140;28;20040;-61
2022/07/25 01:21:05;;;;;;;14.80;8.85;;;;;;;;;;10169551;28;20052;-60
2022/07/25 01:26:00;;;;;;;11.10;8.10;;;;;;;;;;10172609;28;20094;-60
2022/07/25 01:30:55;;;;;;;10.43;9.35;;;;;;;;;;10174907;28;20047;-60
2022/07/25 01:35:49;;;;;;;10.63;9.70;;;;;;;;;;10179208;28;20396;-60
2022/07/25 01:40:42;;;;;;;11.85;10.70;;;;;;;;;;10185934;28;20398;-61
2022/07/25 01:45:37;;;;;;;12.32;10.57;;;;;;;;;;10170793;28;20048;-63
2022/07/25 01:50:30;;;;;;;16.15;11.00;;;;;;;;;;10186150;28;20052;-60
2022/07/25 01:55:24;;;;;;;18.77;11.20;;;;;;;;;;10182847;28;20040;-62
2022/07/25 02:00:21;;;;;;;15.45;13.30;;;;;;;;;;10181068;28;20510;-63
2022/07/25 02:05:15;;;;;;;17.42;11.80;;;;;;;;;;10179717;28;20059;-62
2022/07/25 02:10:10;;;;;;;13.10;11.70;;;;;;;;;;10178314;28;20060;-62
2022/07/25 02:15:05;;;;;;;15.13;13.55;;;;;;;;;;10169344;28;20052;-62
2022/07/25 02:19:59;;;;;;;14.98;13.32;;;;;;;;;;10166663;28;20059;-62
2022/07/25 02:24:53;;;;;;;22.05;17.38;;;;;;;;;;10170847;28;20130;-62
2022/07/25 02:29:48;;;;;;;20.15;16.23;;;;;;;;;;10183819;28;20075;-63
2022/07/25 02:34:42;;;;;;;16.15;14.73;;;;;;;;;;10173155;28;20036;-62
2022/07/25 02:39:36;;;;;;;17.27;14.82;;;;;;;;;;10167596;28;20444;-62
2022/07/25 02:44:30;;;;;;;15.85;14.23;;;;;;;;;;10182523;28;20519;-62
2022/07/25 02:49:24;;;;;;;14.85;12.80;;;;;;;;;;10186743;28;20056;-61
2022/07/25 02:54:20;;;;;;;16.00;14.18;;;;;;;;;;10182024;28;20105;-59
2022/07/25 02:59:14;;;;;;;16.60;14.13;;;;;;;;;;10176719;28;20059;-60
2022/07/25 03:04:07;;;;;;;15.60;13.65;;;;;;;;;;10173498;28;20058;-62
2022/07/25 03:09:06;;;;;;;13.85;12.55;;;;;;;;;;10182578;28;20446;-61
2022/07/25 03:14:13;;;;;;;14.73;13.30;;;;;;;;;;10164772;28;20040;-61
2022/07/25 03:19:13;;;;;;;21.75;14.95;;;;;;;;;;10169310;28;20067;-61
2022/07/25 03:24:14;;;;;;;15.18;13.77;;;;;;;;;;10167730;28;20452;-61
2022/07/25 03:29:17;;;;;;;15.00;13.50;;;;;;;;;;10170835;28;20064;-61
2022/07/25 03:34:19;;;;;;;15.43;13.95;;;;;;;;;;10177154;28;20105;-60
2022/07/25 03:39:21;;;;;;;16.63;14.90;;;;;;;;;;10169494;28;20040;-61
2022/07/25 03:44:25;;;;;;;158.10;18.92;;;;;;;;;;10177859;28;20086;-61
2022/07/25 03:49:25;;;;;;;14.00;12.57;;;;;;;;;;10161157;28;20102;-61
2022/07/25 03:54:26;;;;;;;14.30;13.02;;;;;;;;;;10175568;28;20044;-61
2022/07/25 03:59:28;;;;;;;15.15;12.15;;;;;;;;;;10172651;28;20059;-60
2022/07/25 04:04:28;;;;;;;14.48;12.02;;;;;;;;;;10161397;28;20173;-61
2022/07/25 04:09:33;;;;;;;12.48;11.27;;;;;;;;;;10177818;28;20089;-60
2022/07/25 04:14:36;;;;;;;14.73;13.23;;;;;;;;;;10163083;28;20052;-61
2022/07/25 04:19:38;;;;;;;14.50;13.07;;;;;;;;;;10174956;28;20048;-61
2022/07/25 04:24:40;;;;;;;17.77;12.48;;;;;;;;;;10169524;28;20049;-61
2022/07/25 04:29:41;;;;;;;13.60;11.73;;;;;;;;;;10166782;28;20135;-61
2022/07/25 04:34:43;;;;;;;18.10;12.57;;;;;;;;;;10175781;28;20093;-60
2022/07/25 04:39:45;;;;;;;13.65;12.40;;;;;;;;;;10166237;28;20144;-60
2022/07/25 04:44:42;;;;;;;13.23;11.93;;;;;;;;;;10176332;28;20052;-60
2022/07/25 04:49:36;;;;;;;13.63;11.52;;;;;;;;;;10171558;28;20052;-61
2022/07/25 04:54:31;;;;;;;16.98;12.35;;;;;;;;;;10184052;28;20052;-60
2022/07/25 04:59:25;;;;;;;20.40;12.45;;;;;;;;;;10180242;28;20072;-61
2022/07/25 05:04:19;;;;;;;13.65;12.25;;;;;;;;;;10176260;28;20391;-60
2022/07/25 05:09:13;;;;;;;14.05;11.25;;;;;;;;;;10166832;28;20053;-61
2022/07/25 05:14:07;;;;;;;13.93;12.45;;;;;;;;;;10167181;28;20546;-61
2022/07/25 05:19:02;;;;;;;13.45;12.13;;;;;;;;;;10170042;28;20547;-61
2022/07/25 05:23:58;;;;;;;16.95;12.32;;;;;;;;;;10181186;28;20091;-61
2022/07/25 05:28:54;;;;;;;;;;;;;;;;;;10176092;28;20513;-61
2022/07/25 05:33:48;;;;;;;15.80;13.43;;;;;;;;;;10178359;28;19946;-63
2022/07/25 05:38:42;;;;;;;25.77;14.02;;;;;;;;;;10173214;28;20048;-63
2022/07/25 05:43:36;;;;;;;14.45;12.50;;;;;;;;;;10173058;28;20052;-63
2022/07/25 05:48:30;;;;;;;18.70;11.52;;;;;;;;;;10178525;28;20545;-63
2022/07/25 05:53:25;;;;;;;16.52;10.90;;;;;;;;;;10176209;28;20431;-64
2022/07/25 05:58:20;;;;;;;18.40;11.52;;;;;;;;;;10177260;28;20407;-63
2022/07/25 06:03:22;;;;;;;14.88;10.80;;;;;;;;;;10170806;28;20145;-62
2022/07/25 06:08:16;;;;;;;15.90;11.63;;;;;;;;;;10169743;28;20048;-62
2022/07/25 06:13:10;;;;;;;20.50;11.88;;;;;;;;;;10171184;28;20059;-66
2022/07/25 06:19:39;;;;;;;19.05;10.93;;;;;;;;;;10062291;28;20487;-67
2022/07/25 06:24:32;;;;;;;19.23;12.98;;;;;;;;;;10060375;28;20489;-59
2022/07/25 06:29:26;;;;;;;15.05;11.32;;;;;;;;;;10060689;28;20067;-62
2022/07/25 06:34:21;;;;;;;12.75;9.52;;;;;;;;;;10067581;28;20504;-62
2022/07/25 06:39:20;;;;;;;11.73;10.48;;;;;;;;;;10063554;28;20107;-61
2022/07/25 06:44:15;;;;;;;10.73;9.77;;;;;;;;;;10068697;28;20042;-61
2022/07/25 06:49:08;;;;;;;11.48;10.18;;;;;;;;;;10065009;28;20128;-62
2022/07/25 06:54:03;;;;;;;17.88;10.68;;;;;;;;;;10059913;28;20050;-62
2022/07/25 06:58:59;;;;;;;12.35;11.05;;;;;;;;;;10059594;28;20108;-61
2022/07/25 07:03:53;;;;;;;16.27;11.68;;;;;;;;;;10056703;28;20045;-61
2022/07/25 07:08:47;;;;;;;13.77;10.65;;;;;;;;;;10058807;28;20053;-61
2022/07/25 07:13:40;;;;;;;16.35;11.18;;;;;;;;;;10058748;28;20057;-61
2022/07/25 07:18:34;;;;;;;17.77;10.57;;;;;;;;;;10058141;28;20057;-62
2022/07/25 07:23:27;;;;;;;12.90;11.60;;;;;;;;;;10058181;28;20556;-61
2022/07/25 07:28:20;;;;;;;11.82;10.65;;;;;;;;;;10048069;28;20061;-61
2022/07/25 07:33:15;;;;;;;15.82;10.57;;;;;;;;;;10028236;28;20424;-60
2022/07/25 07:38:08;;;;;;;18.60;11.27;;;;;;;;;;10031397;28;20096;-60
2022/07/25 07:43:02;;;;;;;12.15;10.23;;;;;;;;;;10029996;28;20057;-60
2022/07/25 07:47:57;;;;;;;10.80;9.70;;;;;;;;;;10029034;28;20056;-59
2022/07/25 07:52:51;;;;;;;17.65;11.40;;;;;;;;;;10026590;28;20107;-61
2022/07/25 07:57:45;;;;;;;11.60;10.45;;;;;;;;;;10030681;28;20050;-61
2022/07/25 08:02:46;;;;;;;15.10;10.57;;;;;;;;;;10029629;28;20459;-60
2022/07/25 08:07:41;;;;;;;15.55;9.98;;;;;;;;;;10029051;28;20049;-59
2022/07/25 08:12:39;;;;;;;11.23;9.43;;;;;;;;;;10028886;28;20046;-59
2022/07/25 08:17:33;;;;;;;12.15;10.05;;;;;;;;;;10022551;28;20057;-59
2022/07/25 08:22:37;;;;;;;16.48;10.07;;;;;;;;;;10027493;28;20058;-59
2022/07/25 08:27:32;;;;;;;11.18;7.75;;;;;;;;;;10039668;28;20054;-59
2022/07/25 08:32:29;;;;;;;10.52;9.52;;;;;;;;;;10024345;28;20046;-60
2022/07/25 08:37:24;;;;;;;15.68;8.70;;;;;;;;;;10027807;28;20042;-59
2022/07/25 08:42:21;;;;;;;15.40;9.40;;;;;;;;;;10026488;28;20405;-59
2022/07/25 08:47:14;;;;;;;;;;;;;;;;;;10029345;28;20057;-58
2022/07/25 08:52:08;;;;;;;13.80;8.07;;;;;;;;;;10027308;28;19991;-58
2022/07/25 08:57:02;;;;;;;15.90;9.18;;;;;;;;;;10025120;28;20053;-59
2022/07/25 09:01:59;;;;;;;16.45;9.27;;;;;;;;;;10027460;28;20042;-59
2022/07/25 09:06:53;;;;;;;;;;;;;;;;;;10033308;28;20064;-61
2022/07/25 09:11:49;;;;;;;8.65;7.90;;;;;;;;;;10023161;28;20071;-60
2022/07/25 09:16:44;;;;;;;7.93;6.97;;;;;;;;;;10019308;28;20137;-61
2022/07/25 09:21:39;;;;;;;11.43;6.13;;;;;;;;;;10025719;28;20076;-59
2022/07/25 09:26:46;;;;;;;11.98;6.03;;;;;;;;;;10024019;28;20050;-58
2022/07/25 09:31:41;;;;;;;13.27;5.43;;;;;;;;;;10024279;28;20497;-59
2022/07/25 09:36:38;;;;;;;7.07;5.50;;;;;;;;;;10022972;28;20429;-58
2022/07/25 09:41:35;;;;;;;7.78;5.18;;;;;;;;;;10045327;28;20565;-58
2022/07/25 09:46:32;;;;;;;10.75;4.93;;;;;;;;;;10035050;28;20041;-59
2022/07/25 09:51:27;;;;;;;8.02;4.78;;;;;;;;;;10047650;28;20079;-60
2022/07/25 09:56:22;;;;;;;8.95;4.88;;;;;;;;;;10052757;28;20067;-60
2022/07/25 10:01:21;;;;;;;14.13;4.88;;;;;;;;;;10034087;28;20544;-59
2022/07/25 10:06:33;;;;;;;8.68;4.82;;;;;;;;;;10040223;28;20044;-61
2022/07/25 10:11:30;;;;;;;12.57;4.47;;;;;;;;;;10027713;28;20453;-60
2022/07/25 10:16:25;;;;;;;16.15;5.50;;;;;;;;;;10052577;28;20430;-60
2022/07/25 10:21:18;;;;;;;;;;;;;;;;;;10035725;28;20042;-60
2022/07/25 10:26:19;;;;;;;11.05;3.70;;;;;;;;;;10024270;28;19949;-61
2022/07/25 10:31:30;;;;;;;16.90;4.40;;;;;;;;;;10031417;28;20053;-61
2022/07/25 10:36:32;;;;;;;6.07;3.65;;;;;;;;;;10042577;28;20049;-60
2022/07/25 10:41:27;;;;;;;6.88;3.90;;;;;;;;;;10046339;28;20544;-61
2022/07/25 10:46:22;;;;;;;10.25;3.70;;;;;;;;;;10047552;28;20116;-61
2022/07/25 10:51:28;;;;;;;15.85;4.60;;;;;;;;;;10022513;28;20132;-60
2022/07/25 10:56:24;;;;;;;6.80;3.50;;;;;;;;;;10019329;28;20535;-61
2022/07/25 11:01:26;;;;;;;8.75;3.88;;;;;;;;;;10044295;28;20129;-60
2022/07/25 11:06:35;;;;;;;11.63;3.80;;;;;;;;;;10052617;28;20049;-61
2022/07/25 11:11:34;;;;;;;9.65;3.80;;;;;;;;;;10054492;28;20124;-60
2022/07/25 11:16:29;;;;;;;7.10;3.60;;;;;;;;;;10055995;28;20496;-60
2022/07/25 11:21:22;;;;;;;10.63;3.30;;;;;;;;;;10049392;28;20444;-60
2022/07/25 11:26:16;;;;;;;8.73;3.70;;;;;;;;;;10049185;28;20046;-61
2022/07/25 11:31:10;;;;;;;10.48;3.63;;;;;;;;;;10052368;28;20092;-60
2022/07/25 11:36:05;;;;;;;6.53;4.15;;;;;;;;;;10052537;28;20096;-62
2022/07/25 11:41:00;;;;;;;11.73;3.35;;;;;;;;;;10048677;28;20069;-61
2022/07/25 11:46:05;;;;;;;9.95;4.10;;;;;;;;;;10052944;28;20449;-61
2022/07/25 11:51:17;;;;;;;5.20;4.00;;;;;;;;;;10030351;28;20064;-60
2022/07/25 11:56:16;;;;;;;5.85;3.80;;;;;;;;;;10024498;28;20073;-60
2022/07/25 12:01:37;;;;;;;6.07;4.35;;;;;;;;;;10042091;28;20041;-60
2022/07/25 12:06:31;;;;;;;9.68;4.40;;;;;;;;;;10032988;28;20077;-60
2022/07/25 12:11:25;;;;;;;8.45;4.32;;;;;;;;;;10050515;28;20084;-61
2022/07/25 12:16:19;;;;;;;6.85;4.20;;;;;;;;;;10034081;28;20065;-61
2022/07/25 12:21:31;;;;;;;;;;;;;;;;;;10030430;28;20551;-61
2022/07/25 12:27:04;;;;;;;11.98;4.95;;;;;;;;;;10027367;28;20376;-64
2022/07/25 12:32:18;;;;;;;5.55;4.03;;;;;;;;;;10029420;28;20115;-62
2022/07/25 12:37:12;;;;;;;4.30;3.90;;;;;;;;;;10028531;28;20416;-61
2022/07/25 12:42:06;;;;;;;7.60;4.05;;;;;;;;;;10031264;28;20057;-61
2022/07/25 12:47:01;;;;;;;10.95;4.28;;;;;;;;;;10029280;28;20125;-60
2022/07/25 12:51:54;;;;;;;11.60;5.03;;;;;;;;;;10033630;28;20057;-60
2022/07/25 12:56:49;;;;;;;;;;;;;;;;;;10032698;28;20050;-60
2022/07/25 13:01:43;;;;;;;13.85;5.45;;;;;;;;;;10031149;28;19925;-59
2022/07/25 13:06:37;;;;;;;10.63;5.97;;;;;;;;;;10034002;28;20046;-59
2022/07/25 13:11:32;;;;;;;6.80;5.82;;;;;;;;;;10054056;28;20046;-59
2022/07/25 13:16:27;;;;;;;8.60;5.77;;;;;;;;;;10042269;28;20054;-60
2022/07/25 13:21:21;;;;;;;6.60;5.93;;;;;;;;;;10044527;28;20073;-61
2022/07/25 13:26:17;;;;;;;7.20;5.63;;;;;;;;;;10039214;28;20128;-60
2022/07/25 13:31:11;;;;;;;9.77;6.13;;;;;;;;;;10027190;28;20120;-61
2022/07/25 13:36:06;;;;;;;9.95;6.43;;;;;;;;;;10033190;28;20129;-61
2022/07/25 13:41:01;;;;;;;14.40;7.20;;;;;;;;;;10032990;28;20049;-61
2022/07/25 13:45:55;;;;;;;10.75;5.53;;;;;;;;;;10036337;28;20527;-61
2022/07/25 13:50:49;;;;;;;8.75;6.00;;;;;;;;;;10032041;28;20116;-61
2022/07/25 13:55:44;;;;;;;13.85;6.10;;;;;;;;;;10030615;28;20042;-61
2022/07/25 14:00:37;;;;;;;9.55;6.20;;;;;;;;;;10032011;28;20053;-61
2022/07/25 14:05:31;;;;;;;11.75;6.13;;;;;;;;;;10033977;28;20492;-61
2022/07/25 14:10:25;;;;;;;5.50;5.00;;;;;;;;;;10045037;28;20094;-61
2022/07/25 14:15:19;;;;;;;9.50;5.30;;;;;;;;;;10037244;28;20061;-61
2022/07/25 14:20:13;;;;;;;10.95;5.70;;;;;;;;;;10034492;28;20456;-61
2022/07/25 14:25:08;;;;;;;8.77;5.50;;;;;;;;;;10034807;28;20046;-61
2022/07/25 14:30:02;;;;;;;8.77;5.80;;;;;;;;;;10024193;28;20386;-61
2022/07/25 14:34:59;;;;;;;7.30;6.35;;;;;;;;;;10021182;28;20440;-61
2022/07/25 14:39:56;;;;;;;11.70;6.63;;;;;;;;;;10047222;28;20057;-61
2022/07/25 14:44:50;;;;;;;7.93;6.20;;;;;;;;;;10029553;28;20070;-61
2022/07/25 14:49:44;;;;;;;8.13;6.05;;;;;;;;;;10030663;28;20053;-61
2022/07/25 14:54:39;;;;;;;7.82;6.50;;;;;;;;;;10030377;28;20046;-61
2022/07/25 14:59:32;;;;;;;10.07;6.65;;;;;;;;;;10035488;28;20424;-61
2022/07/25 15:04:26;;;;;;;8.73;6.75;;;;;;;;;;10031560;28;20451;-61
2022/07/25 15:09:21;;;;;;;9.15;6.90;;;;;;;;;;10049903;28;20128;-61
2022/07/25 15:14:15;;;;;;;12.43;6.07;;;;;;;;;;10049266;28;20060;-61
2022/07/25 15:19:09;;;;;;;8.70;6.13;;;;;;;;;;10041879;28;20069;-61
2022/07/25 15:24:09;;;;;;;10.07;5.95;;;;;;;;;;10042970;28;20140;-60
2022/07/25 15:29:08;;;;;;;9.50;6.20;;;;;;;;;;10038512;28;20053;-60
2022/07/25 15:34:02;;;;;;;10.05;6.35;;;;;;;;;;10033837;28;20111;-60
2022/07/25 15:38:55;;;;;;;12.70;7.07;;;;;;;;;;10036453;28;20077;-60
2022/07/25 15:43:48;;;;;;;13.68;6.95;;;;;;;;;;10032517;28;20041;-61
2022/07/25 15:48:43;;;;;;;8.13;6.95;;;;;;;;;;10041004;28;20484;-61
2022/07/25 15:53:38;;;;;;;12.17;6.63;;;;;;;;;;10034974;28;20493;-61
2022/07/25 15:58:32;;;;;;;8.85;6.80;;;;;;;;;;10031541;28;20054;-61
2022/07/25 16:03:25;;;;;;;13.02;7.07;;;;;;;;;;10032194;28;20049;-61
2022/07/25 16:08:19;;;;;;;10.73;6.65;;;;;;;;;;10029843;28;20049;-62
2022/07/25 16:13:13;;;;;;;8.65;5.97;;;;;;;;;;10025626;28;20420;-60
2022/07/25 16:18:08;;;;;;;9.63;6.15;;;;;;;;;;10051101;28;20136;-60
2022/07/25 16:23:02;;;;;;;9.45;7.60;;;;;;;;;;10023577;28;20053;-60
2022/07/25 16:27:57;;;;;;;10.07;6.45;;;;;;;;;;10030612;28;20575;-61
2022/07/25 16:32:51;;;;;;;9.35;7.10;;;;;;;;;;10030561;28;20057;-61
2022/07/25 16:37:46;;;;;;;10.18;6.38;;;;;;;;;;10039216;28;20045;-60
2022/07/25 16:42:40;;;;;;;8.18;6.00;;;;;;;;;;10029403;28;20046;-63
2022/07/25 16:47:35;;;;;;;7.78;6.47;;;;;;;;;;10028242;28;20470;-64
2022/07/25 16:52:29;;;;;;;13.70;7.45;;;;;;;;;;10033271;28;20520;-64
2022/07/25 16:57:22;;;;;;;9.00;7.47;;;;;;;;;;10030391;28;20111;-65
2022/07/25 17:02:17;;;;;;;7.05;6.38;;;;;;;;;;10027485;28;20053;-64
2022/07/25 17:07:16;;;;;;;7.93;6.43;;;;;;;;;;10037816;28;20404;-62
2022/07/25 17:12:09;;;;;;;9.50;6.95;;;;;;;;;;10033437;28;20084;-65
2022/07/25 17:17:04;;;;;;;9.30;7.22;;;;;;;;;;10044452;28;20500;-65
2022/07/25 17:21:58;;;;;;;15.60;7.65;;;;;;;;;;10038549;28;20116;-65
2022/07/25 17:26:52;;;;;;;17.02;7.53;;;;;;;;;;10037077;28;20042;-61
2022/07/25 17:31:47;;;;;;;12.70;8.68;;;;;;;;;;10042681;28;20045;-62
2022/07/25 17:36:42;;;;;;;16.95;8.32;;;;;;;;;;10044091;28;20049;-61
2022/07/25 17:41:36;;;;;;;12.82;8.50;;;;;;;;;;10040009;28;20136;-64
2022/07/25 17:46:30;;;;;;;11.52;7.70;;;;;;;;;;10044516;28;20042;-62
2022/07/25 17:51:25;;;;;;;10.65;7.35;;;;;;;;;;10027716;28;20104;-62
2022/07/25 17:56:23;;;;;;;12.43;8.25;;;;;;;;;;10029491;28;20112;-65
2022/07/25 18:01:21;;;;;;;12.48;8.25;;;;;;;;;;10036585;28;20137;-62
2022/07/25 18:06:21;;;;;;;10.10;8.38;;;;;;;;;;10050384;28;20095;-62
2022/07/25 18:11:22;;;;;;;9.43;8.45;;;;;;;;;;10040882;28;20045;-61
2022/07/25 18:16:21;;;;;;;9.07;7.95;;;;;;;;;;10037392;28;20045;-61
2022/07/25 18:21:17;;;;;;;12.80;7.47;;;;;;;;;;10029103;28;20066;-61
2022/07/25 18:26:13;;;;;;;10.23;8.70;;;;;;;;;;10027055;28;20041;-61
2022/07/25 18:31:13;;;;;;;9.88;8.15;;;;;;;;;;10016153;28;20091;-62
2022/07/25 18:36:14;;;;;;;12.80;8.88;;;;;;;;;;10021953;28;20070;-62
2022/07/25 18:41:12;;;;;;;12.35;8.93;;;;;;;;;;10023422;28;20080;-63
2022/07/25 18:46:24;;;;;;;9.27;8.35;;;;;;;;;;10019285;28;20050;-62
2022/07/25 18:51:23;;;;;;;10.03;7.67;;;;;;;;;;10012925;28;20417;-61
2022/07/25 18:56:21;;;;;;;9.23;8.30;;;;;;;;;;10013207;28;20116;-61
2022/07/25 19:01:20;;;;;;;7.80;7.07;;;;;;;;;;10021007;28;20048;-62
2022/07/25 19:06:19;;;;;;;11.25;8.93;;;;;;;;;;10020529;28;20065;-64
2022/07/25 19:11:14;;;;;;;12.35;8.93;;;;;;;;;;10022876;28;20538;-64
2022/07/25 19:16:10;;;;;;;10.30;8.57;;;;;;;;;;10025703;28;20053;-64
2022/07/25 19:21:04;;;;;;;8.70;7.93;;;;;;;;;;10026292;28;20085;-66
2022/07/25 19:26:00;;;;;;;15.38;10.48;;;;;;;;;;10030096;28;20133;-63
2022/07/25 19:30:55;;;;;;;11.13;9.70;;;;;;;;;;10029450;28;20065;-65
2022/07/25 19:35:49;;;;;;;15.40;9.38;;;;;;;;;;10032177;28;20124;-64
2022/07/25 19:40:45;;;;;;;9.23;8.20;;;;;;;;;;10030998;28;20116;-64
2022/07/25 19:45:38;;;;;;;8.75;7.70;;;;;;;;;;10040668;28;20489;-62
2022/07/25 19:50:33;;;;;;;9.38;8.30;;;;;;;;;;10043406;28;20045;-61
2022/07/25 19:55:27;;;;;;;12.48;8.55;;;;;;;;;;10034132;28;20100;-60
2022/07/25 20:00:22;;;;;;;11.13;8.75;;;;;;;;;;10030292;28;20069;-60
2022/07/25 20:05:17;;;;;;;13.95;9.13;;;;;;;;;;10030985;28;20096;-60
2022/07/25 20:10:14;;;;;;;12.18;8.80;;;;;;;;;;10018948;28;20046;-59
2022/07/25 20:15:17;;;;;;;10.77;7.78;;;;;;;;;;10015404;28;20049;-60
2022/07/25 20:20:15;;;;;;;14.10;7.38;;;;;;;;;;10016154;28;20069;-58
2022/07/25 20:25:13;;;;;;;8.95;6.88;;;;;;;;;;10013793;28;20054;-60
2022/07/25 20:30:14;;;;;;;8.10;7.30;;;;;;;;;;10025461;28;20103;-60
2022/07/25 20:35:10;;;;;;;9.68;7.78;;;;;;;;;;10016425;28;20422;-59
2022/07/25 20:40:06;;;;;;;9.93;8.18;;;;;;;;;;10022852;28;20046;-60
2022/07/25 20:45:07;;;;;;;9.30;7.20;;;;;;;;;;10021467;28;20546;-60
2022/07/25 20:50:09;;;;;;;10.60;7.15;;;;;;;;;;10023211;28;20054;-60
2022/07/25 20:55:12;;;;;;;14.90;7.53;;;;;;;;;;10026357;28;20398;-62
2022/07/25 21:00:14;;;;;;;55.70;10.27;;;;;;;;;;10018918;28;20056;-61
2022/07/25 21:05:16;;;;;;;66.85;12.48;;;;;;;;;;10013181;28;20038;-61
2022/07/25 21:10:12;;;;;;;87.28;13.45;;;;;;;;;;10016623;28;20046;-61
2022/07/25 21:15:11;;;;;;;51.58;11.25;;;;;;;;;;10015529;28;20113;-60
2022/07/25 21:20:07;;;;;;;44.65;10.45;;;;;;;;;;10020097;28;20049;-59
2022/07/25 21:25:01;;;;;;;26.75;8.10;;;;;;;;;;10025458;28;20497;-60
2022/07/25 21:29:55;;;;;;;23.98;7.85;;;;;;;;;;10027193;28;20056;-59
2022/07/25 21:34:50;;;;;;;16.50;6.65;;;;;;;;;;10034403;28;20053;-61
2022/07/25 21:39:44;;;;;;;14.10;6.45;;;;;;;;;;10022526;28;20045;-62
2022/07/25 21:44:39;;;;;;;15.27;6.65;;;;;;;;;;10024925;28;20054;-59
2022/07/25 21:54:47;;;;;;;10.55;6.13;;;;;;;;;;10025088;28;20651;-61
2022/07/25 21:59:41;;;;;;;12.95;6.28;;;;;;;;;;10030878;28;20042;-59
2022/07/25 22:04:34;;;;;;;10.40;5.90;;;;;;;;;;10019861;28;20588;-59
2022/07/25 22:09:28;;;;;;;7.63;6.00;;;;;;;;;;10020447;28;20413;-61
2022/07/25 22:14:23;;;;;;;9.90;6.05;;;;;;;;;;10025239;28;20466;-61
2022/07/25 22:19:17;;;;;;;8.02;5.63;;;;;;;;;;10026406;28;20082;-61
2022/07/25 22:24:14;;;;;;;6.82;5.70;;;;;;;;;;10028547;28;20112;-60
2022/07/25 22:29:08;;;;;;;8.15;5.95;;;;;;;;;;10018525;28;20054;-60
2022/07/25 22:34:03;;;;;;;10.35;7.13;;;;;;;;;;10033835;28;20042;-60
2022/07/25 22:38:58;;;;;;;12.65;6.18;;;;;;;;;;10018003;28;20086;-60
2022/07/25 22:43:52;;;;;;;6.25;5.65;;;;;;;;;;10019732;28;20437;-59
2022/07/25 22:48:51;;;;;;;8.10;6.95;;;;;;;;;;10024819;28;20073;-60
2022/07/25 22:53:44;;;;;;;7.13;6.47;;;;;;;;;;10019864;28;20046;-61
2022/07/25 22:58:38;;;;;;;7.05;6.35;;;;;;;;;;10021215;28;20042;-60
2022/07/25 23:03:31;;;;;;;10.57;6.30;;;;;;;;;;10032621;28;20049;-60
2022/07/25 23:08:25;;;;;;;7.38;6.38;;;;;;;;;;10033003;28;20052;-60
2022/07/25 23:13:18;;;;;;;7.45;5.68;;;;;;;;;;10033596;28;20104;-60
2022/07/25 23:18:13;;;;;;;7.10;6.35;;;;;;;;;;10032539;28;20468;-60
2022/07/25 23:23:08;;;;;;;11.52;6.95;;;;;;;;;;10033419;28;20115;-60
2022/07/25 23:28:05;;;;;;;9.38;6.18;;;;;;;;;;10033790;28;20121;-60
2022/07/25 23:32:58;;;;;;;7.45;6.07;;;;;;;;;;10032507;28;20049;-60
2022/07/25 23:37:52;;;;;;;8.98;7.03;;;;;;;;;;10032159;28;20058;-60
2022/07/25 23:42:46;;;;;;;11.93;7.10;;;;;;;;;;10032655;28;20054;-60
2022/07/25 23:47:40;;;;;;;13.48;6.68;;;;;;;;;;10031719;28;20057;-61
2022/07/25 23:52:36;;;;;;;13.77;7.97;;;;;;;;;;10029796;28;20050;-60
2022/07/25 23:57:30;;;;;;;30.25;9.60;;;;;;;;;;10029504;28;20045;-60
